sensor_id;sensor_type;location;lat;lon;timestamp;P1;durP1;ratioP1;P2;durP2;ratioP2
59770;SDS011;45649;53.014;6.600;2023-02-15T00:00:24;54.77;;;23.57;;
59770;SDS011;45649;53.014;6.600;2023-02-15T00:02:50;23.73;;;21.07;;
59770;SDS011;45649;53.014;6.600;2023-02-15T00:05:16;40.97;;;22.27;;
59770;SDS011;45649;53.014;6.600;2023-02-15T00:07:42;37.17;;;20.67;;
59770;SDS011;45649;53.014;6.600;2023-02-15T00:10:08;58.40;;;19.17;;
59770;SDS011;45649;53.014;6.600;2023-02-15T00:12:36;113.60;;;19.80;;
59770;SDS011;45649;53.014;6.600;2023-02-15T00:15:03;26.87;;;20.00;;
59770;SDS011;45649;53.014;6.600;2023-02-15T00:17:29;25.90;;;19.80;;
59770;SDS011;45649;53.014;6.600;2023-02-15T00:19:55;62.17;;;21.97;;
59770;SDS011;45649;53.014;6.600;2023-02-15T00:22:21;38.77;;;22.37;;
59770;SDS011;45649;53.014;6.600;2023-02-15T00:24:50;106.60;;;21.60;;
59770;SDS011;45649;53.014;6.600;2023-02-15T00:27:16;27.27;;;20.23;;
59770;SDS011;45649;53.014;6.600;2023-02-15T00:29:42;61.37;;;22.10;;
59770;SDS011;45649;53.014;6.600;2023-02-15T00:32:08;43.83;;;22.33;;
59770;SDS011;45649;53.014;6.600;2023-02-15T00:34:34;71.27;;;20.83;;
59770;SDS011;45649;53.014;6.600;2023-02-15T00:37:00;67.57;;;20.57;;
59770;SDS011;45649;53.014;6.600;2023-02-15T00:39:26;43.80;;;21.70;;
59770;SDS011;45649;53.014;6.600;2023-02-15T00:41:53;36.13;;;20.77;;
59770;SDS011;45649;53.014;6.600;2023-02-15T00:44:19;28.03;;;21.07;;
59770;SDS011;45649;53.014;6.600;2023-02-15T00:46:46;24.97;;;21.03;;
59770;SDS011;45649;53.014;6.600;2023-02-15T00:49:12;26.43;;;22.57;;
59770;SDS011;45649;53.014;6.600;2023-02-15T00:51:38;27.23;;;23.67;;
59770;SDS011;45649;53.014;6.600;2023-02-15T00:54:04;26.83;;;23.90;;
59770;SDS011;45649;53.014;6.600;2023-02-15T00:56:30;28.17;;;24.20;;
59770;SDS011;45649;53.014;6.600;2023-02-15T00:58:56;29.23;;;25.53;;
59770;SDS011;45649;53.014;6.600;2023-02-15T01:01:23;27.90;;;24.87;;
59770;SDS011;45649;53.014;6.600;2023-02-15T01:03:50;28.27;;;25.17;;
59770;SDS011;45649;53.014;6.600;2023-02-15T01:06:17;31.67;;;25.30;;
59770;SDS011;45649;53.014;6.600;2023-02-15T01:08:44;30.13;;;25.20;;
59770;SDS011;45649;53.014;6.600;2023-02-15T01:11:11;28.70;;;23.83;;
59770;SDS011;45649;53.014;6.600;2023-02-15T01:13:38;23.83;;;19.93;;
59770;SDS011;45649;53.014;6.600;2023-02-15T01:16:05;22.13;;;19.17;;
59770;SDS011;45649;53.014;6.600;2023-02-15T01:18:31;17.30;;;15.47;;
59770;SDS011;45649;53.014;6.600;2023-02-15T01:20:57;14.57;;;13.07;;
59770;SDS011;45649;53.014;6.600;2023-02-15T01:23:23;15.53;;;13.93;;
59770;SDS011;45649;53.014;6.600;2023-02-15T01:25:49;16.63;;;14.83;;
59770;SDS011;45649;53.014;6.600;2023-02-15T01:28:16;17.17;;;15.10;;
59770;SDS011;45649;53.014;6.600;2023-02-15T01:30:42;17.83;;;15.90;;
59770;SDS011;45649;53.014;6.600;2023-02-15T01:33:09;18.50;;;15.60;;
59770;SDS011;45649;53.014;6.600;2023-02-15T01:35:42;17.63;;;15.33;;
59770;SDS011;45649;53.014;6.600;2023-02-15T01:38:08;17.47;;;15.03;;
59770;SDS011;45649;53.014;6.600;2023-02-15T01:40:34;17.57;;;15.43;;
59770;SDS011;45649;53.014;6.600;2023-02-15T01:43:00;19.13;;;16.27;;
59770;SDS011;45649;53.014;6.600;2023-02-15T01:45:30;17.57;;;15.73;;
59770;SDS011;45649;53.014;6.600;2023-02-15T01:50:31;21.10;;;18.80;;
59770;SDS011;45649;53.014;6.600;2023-02-15T01:55:36;22.37;;;18.23;;
59770;SDS011;45649;53.014;6.600;2023-02-15T01:58:04;26.33;;;20.40;;
59770;SDS011;45649;53.014;6.600;2023-02-15T02:00:30;33.30;;;23.37;;
59770;SDS011;45649;53.014;6.600;2023-02-15T02:02:56;37.63;;;25.40;;
59770;SDS011;45649;53.014;6.600;2023-02-15T02:05:23;35.97;;;25.83;;
59770;SDS011;45649;53.014;6.600;2023-02-15T02:07:50;33.53;;;22.90;;
59770;SDS011;45649;53.014;6.600;2023-02-15T02:10:18;36.23;;;24.90;;
59770;SDS011;45649;53.014;6.600;2023-02-15T02:12:45;31.73;;;23.10;;
59770;SDS011;45649;53.014;6.600;2023-02-15T02:15:13;37.43;;;24.63;;
59770;SDS011;45649;53.014;6.600;2023-02-15T02:31:43;25.43;;;22.03;;
59770;SDS011;45649;53.014;6.600;2023-02-15T02:33:47;25.23;;;22.13;;
59770;SDS011;45649;53.014;6.600;2023-02-15T02:36:40;25.50;;;22.80;;
59770;SDS011;45649;53.014;6.600;2023-02-15T02:47:01;27.23;;;23.00;;
59770;SDS011;45649;53.014;6.600;2023-02-15T02:49:36;25.43;;;22.40;;
59770;SDS011;45649;53.014;6.600;2023-02-15T02:52:07;25.33;;;21.83;;
59770;SDS011;45649;53.014;6.600;2023-02-15T02:54:34;25.70;;;22.70;;
59770;SDS011;45649;53.014;6.600;2023-02-15T02:57:03;31.17;;;24.53;;
59770;SDS011;45649;53.014;6.600;2023-02-15T02:59:31;32.30;;;24.57;;
59770;SDS011;45649;53.014;6.600;2023-02-15T03:04:35;35.07;;;25.30;;
59770;SDS011;45649;53.014;6.600;2023-02-15T03:07:07;33.67;;;25.73;;
59770;SDS011;45649;53.014;6.600;2023-02-15T03:09:43;34.17;;;26.73;;
59770;SDS011;45649;53.014;6.600;2023-02-15T03:12:13;33.43;;;25.07;;
59770;SDS011;45649;53.014;6.600;2023-02-15T03:14:40;30.93;;;25.07;;
59770;SDS011;45649;53.014;6.600;2023-02-15T03:17:07;30.97;;;23.47;;
59770;SDS011;45649;53.014;6.600;2023-02-15T03:19:34;29.57;;;23.67;;
59770;SDS011;45649;53.014;6.600;2023-02-15T03:22:03;28.87;;;23.10;;
59770;SDS011;45649;53.014;6.600;2023-02-15T03:27:20;21.60;;;19.30;;
59770;SDS011;45649;53.014;6.600;2023-02-15T03:29:48;22.67;;;20.27;;
59770;SDS011;45649;53.014;6.600;2023-02-15T03:32:15;30.67;;;22.63;;
59770;SDS011;45649;53.014;6.600;2023-02-15T03:34:43;31.30;;;22.90;;
59770;SDS011;45649;53.014;6.600;2023-02-15T03:40:11;69.90;;;24.77;;
59770;SDS011;45649;53.014;6.600;2023-02-15T03:43:00;31.73;;;24.70;;
59770;SDS011;45649;53.014;6.600;2023-02-15T03:45:29;33.60;;;24.90;;
59770;SDS011;45649;53.014;6.600;2023-02-15T03:47:56;30.73;;;25.50;;
59770;SDS011;45649;53.014;6.600;2023-02-15T03:50:24;32.90;;;25.37;;
59770;SDS011;45649;53.014;6.600;2023-02-15T03:53:12;39.87;;;25.53;;
59770;SDS011;45649;53.014;6.600;2023-02-15T03:55:39;31.23;;;25.17;;
59770;SDS011;45649;53.014;6.600;2023-02-15T03:58:06;45.70;;;26.87;;
59770;SDS011;45649;53.014;6.600;2023-02-15T04:00:55;34.90;;;24.97;;
59770;SDS011;45649;53.014;6.600;2023-02-15T04:03:45;40.90;;;25.23;;
59770;SDS011;45649;53.014;6.600;2023-02-15T04:06:15;30.60;;;23.80;;
59770;SDS011;45649;53.014;6.600;2023-02-15T04:08:41;46.07;;;24.10;;
59770;SDS011;45649;53.014;6.600;2023-02-15T04:11:26;48.10;;;23.53;;
59770;SDS011;45649;53.014;6.600;2023-02-15T04:13:52;32.13;;;25.17;;
59770;SDS011;45649;53.014;6.600;2023-02-15T04:16:24;37.33;;;23.27;;
59770;SDS011;45649;53.014;6.600;2023-02-15T04:18:51;26.10;;;23.03;;
59770;SDS011;45649;53.014;6.600;2023-02-15T04:21:36;28.67;;;24.87;;
59770;SDS011;45649;53.014;6.600;2023-02-15T04:24:20;27.70;;;24.23;;
59770;SDS011;45649;53.014;6.600;2023-02-15T04:27:05;29.57;;;24.33;;
59770;SDS011;45649;53.014;6.600;2023-02-15T04:29:31;33.73;;;25.47;;
59770;SDS011;45649;53.014;6.600;2023-02-15T04:31:57;37.13;;;28.27;;
59770;SDS011;45649;53.014;6.600;2023-02-15T04:34:24;36.87;;;28.10;;
59770;SDS011;45649;53.014;6.600;2023-02-15T04:36:50;37.40;;;29.70;;
59770;SDS011;45649;53.014;6.600;2023-02-15T04:39:17;36.80;;;28.53;;
59770;SDS011;45649;53.014;6.600;2023-02-15T04:41:43;37.17;;;28.37;;
59770;SDS011;45649;53.014;6.600;2023-02-15T04:44:10;43.00;;;31.23;;
59770;SDS011;45649;53.014;6.600;2023-02-15T04:46:36;43.87;;;31.87;;
59770;SDS011;45649;53.014;6.600;2023-02-15T04:49:02;42.57;;;32.60;;
59770;SDS011;45649;53.014;6.600;2023-02-15T04:51:28;43.30;;;31.53;;
59770;SDS011;45649;53.014;6.600;2023-02-15T04:53:55;39.60;;;30.53;;
59770;SDS011;45649;53.014;6.600;2023-02-15T04:56:21;38.40;;;30.03;;
59770;SDS011;45649;53.014;6.600;2023-02-15T04:58:47;38.63;;;30.77;;
59770;SDS011;45649;53.014;6.600;2023-02-15T05:01:14;38.20;;;29.20;;
59770;SDS011;45649;53.014;6.600;2023-02-15T05:03:40;42.73;;;30.20;;
59770;SDS011;45649;53.014;6.600;2023-02-15T05:06:06;47.77;;;31.13;;
59770;SDS011;45649;53.014;6.600;2023-02-15T05:08:32;63.03;;;34.93;;
59770;SDS011;45649;53.014;6.600;2023-02-15T05:10:58;93.37;;;35.83;;
59770;SDS011;45649;53.014;6.600;2023-02-15T05:13:25;92.27;;;35.03;;
59770;SDS011;45649;53.014;6.600;2023-02-15T05:15:51;56.43;;;37.20;;
59770;SDS011;45649;53.014;6.600;2023-02-15T05:18:18;69.40;;;37.43;;
59770;SDS011;45649;53.014;6.600;2023-02-15T05:20:45;50.43;;;35.30;;
59770;SDS011;45649;53.014;6.600;2023-02-15T05:23:11;59.23;;;36.43;;
59770;SDS011;45649;53.014;6.600;2023-02-15T05:25:37;46.77;;;35.73;;
59770;SDS011;45649;53.014;6.600;2023-02-15T05:28:23;48.73;;;35.70;;
59770;SDS011;45649;53.014;6.600;2023-02-15T05:30:50;54.50;;;37.83;;
59770;SDS011;45649;53.014;6.600;2023-02-15T05:33:17;52.73;;;37.33;;
59770;SDS011;45649;53.014;6.600;2023-02-15T05:35:43;55.53;;;36.73;;
59770;SDS011;45649;53.014;6.600;2023-02-15T05:38:09;57.67;;;39.97;;
59770;SDS011;45649;53.014;6.600;2023-02-15T05:40:35;53.83;;;39.90;;
59770;SDS011;45649;53.014;6.600;2023-02-15T05:43:01;56.20;;;38.07;;
59770;SDS011;45649;53.014;6.600;2023-02-15T05:45:27;56.33;;;38.90;;
59770;SDS011;45649;53.014;6.600;2023-02-15T05:47:53;52.47;;;38.37;;
59770;SDS011;45649;53.014;6.600;2023-02-15T05:50:20;50.57;;;38.00;;
59770;SDS011;45649;53.014;6.600;2023-02-15T05:52:46;48.40;;;36.83;;
59770;SDS011;45649;53.014;6.600;2023-02-15T05:55:12;49.63;;;37.42;;
59770;SDS011;45649;53.014;6.600;2023-02-15T05:57:38;46.40;;;35.73;;
59770;SDS011;45649;53.014;6.600;2023-02-15T06:00:04;45.77;;;35.13;;
59770;SDS011;45649;53.014;6.600;2023-02-15T06:02:34;41.07;;;33.50;;
59770;SDS011;45649;53.014;6.600;2023-02-15T06:05:00;40.77;;;32.33;;
59770;SDS011;45649;53.014;6.600;2023-02-15T06:07:26;41.57;;;32.50;;
59770;SDS011;45649;53.014;6.600;2023-02-15T06:09:52;41.83;;;34.35;;
59770;SDS011;45649;53.014;6.600;2023-02-15T06:12:18;36.40;;;31.17;;
59770;SDS011;45649;53.014;6.600;2023-02-15T06:14:44;38.07;;;31.23;;
59770;SDS011;45649;53.014;6.600;2023-02-15T06:17:11;40.87;;;30.97;;
59770;SDS011;45649;53.014;6.600;2023-02-15T06:19:37;37.50;;;31.57;;
59770;SDS011;45649;53.014;6.600;2023-02-15T06:22:03;37.17;;;30.20;;
59770;SDS011;45649;53.014;6.600;2023-02-15T06:24:29;39.63;;;31.77;;
59770;SDS011;45649;53.014;6.600;2023-02-15T06:26:55;41.63;;;31.40;;
59770;SDS011;45649;53.014;6.600;2023-02-15T06:29:21;41.10;;;30.73;;
59770;SDS011;45649;53.014;6.600;2023-02-15T06:31:47;40.97;;;31.00;;
59770;SDS011;45649;53.014;6.600;2023-02-15T06:34:13;37.33;;;30.27;;
59770;SDS011;45649;53.014;6.600;2023-02-15T06:36:39;36.33;;;29.83;;
59770;SDS011;45649;53.014;6.600;2023-02-15T06:39:05;35.47;;;29.23;;
59770;SDS011;45649;53.014;6.600;2023-02-15T06:41:31;35.43;;;28.10;;
59770;SDS011;45649;53.014;6.600;2023-02-15T06:43:57;36.27;;;29.60;;
59770;SDS011;45649;53.014;6.600;2023-02-15T06:46:24;34.13;;;29.30;;
59770;SDS011;45649;53.014;6.600;2023-02-15T06:48:50;33.20;;;28.77;;
59770;SDS011;45649;53.014;6.600;2023-02-15T06:51:16;32.63;;;27.53;;
59770;SDS011;45649;53.014;6.600;2023-02-15T06:53:42;34.40;;;29.13;;
59770;SDS011;45649;53.014;6.600;2023-02-15T06:56:09;34.83;;;28.47;;
59770;SDS011;45649;53.014;6.600;2023-02-15T06:58:35;35.03;;;28.50;;
59770;SDS011;45649;53.014;6.600;2023-02-15T07:01:02;33.13;;;27.63;;
59770;SDS011;45649;53.014;6.600;2023-02-15T07:03:28;33.97;;;28.20;;
59770;SDS011;45649;53.014;6.600;2023-02-15T07:05:57;34.03;;;28.90;;
59770;SDS011;45649;53.014;6.600;2023-02-15T07:08:24;30.53;;;27.10;;
59770;SDS011;45649;53.014;6.600;2023-02-15T07:10:51;34.00;;;28.27;;
59770;SDS011;45649;53.014;6.600;2023-02-15T07:13:17;34.73;;;27.83;;
59770;SDS011;45649;53.014;6.600;2023-02-15T07:15:45;31.60;;;27.57;;
59770;SDS011;45649;53.014;6.600;2023-02-15T07:18:11;32.37;;;27.13;;
59770;SDS011;45649;53.014;6.600;2023-02-15T07:20:37;30.87;;;26.97;;
59770;SDS011;45649;53.014;6.600;2023-02-15T07:23:06;33.87;;;28.83;;
59770;SDS011;45649;53.014;6.600;2023-02-15T07:25:33;32.77;;;26.80;;
59770;SDS011;45649;53.014;6.600;2023-02-15T07:27:59;32.67;;;28.23;;
59770;SDS011;45649;53.014;6.600;2023-02-15T07:30:26;32.77;;;27.67;;
59770;SDS011;45649;53.014;6.600;2023-02-15T07:32:58;33.63;;;27.80;;
59770;SDS011;45649;53.014;6.600;2023-02-15T07:35:50;32.67;;;27.27;;
59770;SDS011;45649;53.014;6.600;2023-02-15T07:38:16;34.27;;;27.47;;
59770;SDS011;45649;53.014;6.600;2023-02-15T07:40:43;31.03;;;26.53;;
59770;SDS011;45649;53.014;6.600;2023-02-15T07:43:09;33.83;;;28.27;;
59770;SDS011;45649;53.014;6.600;2023-02-15T07:45:35;33.70;;;27.40;;
59770;SDS011;45649;53.014;6.600;2023-02-15T07:48:02;32.07;;;27.37;;
59770;SDS011;45649;53.014;6.600;2023-02-15T07:50:28;33.30;;;27.37;;
59770;SDS011;45649;53.014;6.600;2023-02-15T07:52:54;33.03;;;27.77;;
59770;SDS011;45649;53.014;6.600;2023-02-15T07:55:20;33.90;;;26.77;;
59770;SDS011;45649;53.014;6.600;2023-02-15T07:57:47;33.57;;;27.03;;
59770;SDS011;45649;53.014;6.600;2023-02-15T08:00:14;33.07;;;27.20;;
59770;SDS011;45649;53.014;6.600;2023-02-15T08:02:41;26.50;;;19.83;;
59770;SDS011;45649;53.014;6.600;2023-02-15T08:05:08;34.27;;;27.87;;
59770;SDS011;45649;53.014;6.600;2023-02-15T08:07:34;34.03;;;26.50;;
59770;SDS011;45649;53.014;6.600;2023-02-15T08:10:00;36.50;;;28.63;;
59770;SDS011;45649;53.014;6.600;2023-02-15T08:12:26;35.13;;;27.43;;
59770;SDS011;45649;53.014;6.600;2023-02-15T08:14:52;32.60;;;27.20;;
59770;SDS011;45649;53.014;6.600;2023-02-15T08:17:18;36.20;;;27.90;;
59770;SDS011;45649;53.014;6.600;2023-02-15T08:19:44;35.03;;;28.27;;
59770;SDS011;45649;53.014;6.600;2023-02-15T08:22:12;33.87;;;27.57;;
59770;SDS011;45649;53.014;6.600;2023-02-15T08:24:39;35.90;;;29.37;;
59770;SDS011;45649;53.014;6.600;2023-02-15T08:27:06;35.83;;;28.17;;
59770;SDS011;45649;53.014;6.600;2023-02-15T08:29:33;35.20;;;28.13;;
59770;SDS011;45649;53.014;6.600;2023-02-15T08:32:04;36.73;;;30.03;;
59770;SDS011;45649;53.014;6.600;2023-02-15T08:34:31;37.60;;;29.57;;
59770;SDS011;45649;53.014;6.600;2023-02-15T08:36:57;39.07;;;30.43;;
59770;SDS011;45649;53.014;6.600;2023-02-15T08:39:24;37.27;;;29.67;;
59770;SDS011;45649;53.014;6.600;2023-02-15T08:41:50;38.27;;;30.33;;
59770;SDS011;45649;53.014;6.600;2023-02-15T08:44:17;37.10;;;30.37;;
59770;SDS011;45649;53.014;6.600;2023-02-15T08:46:43;39.03;;;30.03;;
59770;SDS011;45649;53.014;6.600;2023-02-15T08:49:15;40.03;;;30.20;;
59770;SDS011;45649;53.014;6.600;2023-02-15T08:51:42;42.23;;;31.40;;
59770;SDS011;45649;53.014;6.600;2023-02-15T08:54:09;39.20;;;31.03;;
59770;SDS011;45649;53.014;6.600;2023-02-15T08:56:37;41.90;;;32.63;;
59770;SDS011;45649;53.014;6.600;2023-02-15T08:59:04;41.37;;;30.87;;
59770;SDS011;45649;53.014;6.600;2023-02-15T09:01:31;42.60;;;32.17;;
59770;SDS011;45649;53.014;6.600;2023-02-15T09:03:58;44.53;;;32.57;;
59770;SDS011;45649;53.014;6.600;2023-02-15T09:06:25;43.67;;;32.73;;
59770;SDS011;45649;53.014;6.600;2023-02-15T09:08:51;46.47;;;34.23;;
59770;SDS011;45649;53.014;6.600;2023-02-15T09:11:19;44.13;;;32.73;;
59770;SDS011;45649;53.014;6.600;2023-02-15T09:13:49;43.43;;;32.73;;
59770;SDS011;45649;53.014;6.600;2023-02-15T09:16:16;44.90;;;32.57;;
59770;SDS011;45649;53.014;6.600;2023-02-15T09:18:42;46.07;;;33.20;;
59770;SDS011;45649;53.014;6.600;2023-02-15T09:21:10;44.67;;;32.00;;
59770;SDS011;45649;53.014;6.600;2023-02-15T09:23:38;40.23;;;32.37;;
59770;SDS011;45649;53.014;6.600;2023-02-15T09:26:08;43.97;;;34.10;;
59770;SDS011;45649;53.014;6.600;2023-02-15T09:28:34;44.73;;;33.20;;
59770;SDS011;45649;53.014;6.600;2023-02-15T09:31:11;46.77;;;34.93;;
59770;SDS011;45649;53.014;6.600;2023-02-15T09:33:38;50.33;;;36.20;;
59770;SDS011;45649;53.014;6.600;2023-02-15T09:36:12;47.93;;;33.63;;
59770;SDS011;45649;53.014;6.600;2023-02-15T09:38:39;48.40;;;35.73;;
59770;SDS011;45649;53.014;6.600;2023-02-15T09:52:15;49.30;;;36.67;;
59770;SDS011;45649;53.014;6.600;2023-02-15T10:05:20;52.43;;;37.10;;
59770;SDS011;45649;53.014;6.600;2023-02-15T10:21:01;47.83;;;35.07;;
59770;SDS011;45649;53.014;6.600;2023-02-15T10:33:43;57.40;;;40.20;;
59770;SDS011;45649;53.014;6.600;2023-02-15T10:59:18;50.17;;;37.07;;
59770;SDS011;45649;53.014;6.600;2023-02-15T11:06:48;48.37;;;36.30;;
59770;SDS011;45649;53.014;6.600;2023-02-15T11:09:17;51.83;;;38.40;;
59770;SDS011;45649;53.014;6.600;2023-02-15T11:11:48;50.23;;;36.40;;
59770;SDS011;45649;53.014;6.600;2023-02-15T11:14:17;53.73;;;38.57;;
59770;SDS011;45649;53.014;6.600;2023-02-15T11:16:46;49.97;;;36.73;;
59770;SDS011;45649;53.014;6.600;2023-02-15T11:19:19;47.07;;;35.07;;
59770;SDS011;45649;53.014;6.600;2023-02-15T11:21:52;46.53;;;35.27;;
59770;SDS011;45649;53.014;6.600;2023-02-15T11:24:20;43.97;;;33.87;;
59770;SDS011;45649;53.014;6.600;2023-02-15T11:29:23;48.20;;;34.30;;
59770;SDS011;45649;53.014;6.600;2023-02-15T11:31:55;49.53;;;35.23;;
59770;SDS011;45649;53.014;6.600;2023-02-15T11:36:54;49.80;;;35.93;;
59770;SDS011;45649;53.014;6.600;2023-02-15T11:39:21;44.47;;;34.83;;
59770;SDS011;45649;53.014;6.600;2023-02-15T11:41:49;45.17;;;33.60;;
59770;SDS011;45649;53.014;6.600;2023-02-15T11:46:45;46.37;;;35.03;;
59770;SDS011;45649;53.014;6.600;2023-02-15T11:49:29;44.60;;;34.73;;
59770;SDS011;45649;53.014;6.600;2023-02-15T11:51:56;46.90;;;33.67;;
59770;SDS011;45649;53.014;6.600;2023-02-15T11:54:30;50.47;;;36.30;;
59770;SDS011;45649;53.014;6.600;2023-02-15T11:57:06;47.97;;;34.40;;
59770;SDS011;45649;53.014;6.600;2023-02-15T11:59:36;41.20;;;28.93;;
59770;SDS011;45649;53.014;6.600;2023-02-15T12:02:11;45.70;;;34.97;;
59770;SDS011;45649;53.014;6.600;2023-02-15T12:04:41;48.13;;;36.43;;
59770;SDS011;45649;53.014;6.600;2023-02-15T12:12:29;45.80;;;34.50;;
59770;SDS011;45649;53.014;6.600;2023-02-15T12:14:56;51.40;;;38.40;;
59770;SDS011;45649;53.014;6.600;2023-02-15T12:17:26;52.60;;;37.53;;
59770;SDS011;45649;53.014;6.600;2023-02-15T12:19:55;50.57;;;37.33;;
59770;SDS011;45649;53.014;6.600;2023-02-15T12:22:23;50.57;;;36.87;;
59770;SDS011;45649;53.014;6.600;2023-02-15T12:24:50;51.37;;;37.37;;
59770;SDS011;45649;53.014;6.600;2023-02-15T12:27:21;50.73;;;37.00;;
59770;SDS011;45649;53.014;6.600;2023-02-15T12:29:56;54.43;;;39.73;;
59770;SDS011;45649;53.014;6.600;2023-02-15T12:32:26;51.00;;;38.53;;
59770;SDS011;45649;53.014;6.600;2023-02-15T12:35:01;53.10;;;39.23;;
59770;SDS011;45649;53.014;6.600;2023-02-15T12:37:32;49.00;;;37.10;;
59770;SDS011;45649;53.014;6.600;2023-02-15T12:40:00;46.53;;;35.70;;
59770;SDS011;45649;53.014;6.600;2023-02-15T12:42:27;48.20;;;36.60;;
59770;SDS011;45649;53.014;6.600;2023-02-15T12:47:20;49.83;;;35.90;;
59770;SDS011;45649;53.014;6.600;2023-02-15T12:50:34;47.97;;;36.23;;
59770;SDS011;45649;53.014;6.600;2023-02-15T12:52:41;48.37;;;35.50;;
59770;SDS011;45649;53.014;6.600;2023-02-15T12:55:17;45.83;;;33.63;;
59770;SDS011;45649;53.014;6.600;2023-02-15T12:57:44;45.93;;;34.63;;
59770;SDS011;45649;53.014;6.600;2023-02-15T13:02:46;49.40;;;35.73;;
59770;SDS011;45649;53.014;6.600;2023-02-15T13:07:49;46.23;;;35.50;;
59770;SDS011;45649;53.014;6.600;2023-02-15T13:10:35;45.30;;;34.40;;
59770;SDS011;45649;53.014;6.600;2023-02-15T13:13:08;43.43;;;32.37;;
59770;SDS011;45649;53.014;6.600;2023-02-15T13:15:36;46.13;;;33.80;;
59770;SDS011;45649;53.014;6.600;2023-02-15T13:18:03;46.47;;;34.10;;
59770;SDS011;45649;53.014;6.600;2023-02-15T13:20:31;45.20;;;32.93;;
59770;SDS011;45649;53.014;6.600;2023-02-15T13:22:58;47.33;;;33.13;;
59770;SDS011;45649;53.014;6.600;2023-02-15T13:25:26;44.33;;;31.03;;
59770;SDS011;45649;53.014;6.600;2023-02-15T13:27:54;44.10;;;31.60;;
59770;SDS011;45649;53.014;6.600;2023-02-15T13:30:23;44.63;;;31.70;;
59770;SDS011;45649;53.014;6.600;2023-02-15T13:33:08;42.80;;;31.03;;
59770;SDS011;45649;53.014;6.600;2023-02-15T13:35:42;40.53;;;29.03;;
59770;SDS011;45649;53.014;6.600;2023-02-15T13:40:47;41.40;;;30.23;;
59770;SDS011;45649;53.014;6.600;2023-02-15T13:48:34;42.73;;;30.87;;
59770;SDS011;45649;53.014;6.600;2023-02-15T13:51:05;40.90;;;29.30;;
59770;SDS011;45649;53.014;6.600;2023-02-15T13:56:10;39.10;;;28.70;;
59770;SDS011;45649;53.014;6.600;2023-02-15T13:58:58;39.77;;;29.70;;
59770;SDS011;45649;53.014;6.600;2023-02-15T14:04:09;38.40;;;27.33;;
59770;SDS011;45649;53.014;6.600;2023-02-15T14:06:58;38.33;;;29.20;;
59770;SDS011;45649;53.014;6.600;2023-02-15T14:17:03;36.17;;;28.37;;
59770;SDS011;45649;53.014;6.600;2023-02-15T14:27:23;38.00;;;27.60;;
59770;SDS011;45649;53.014;6.600;2023-02-15T14:30:26;39.47;;;29.07;;
59770;SDS011;45649;53.014;6.600;2023-02-15T14:32:45;40.93;;;29.27;;
59770;SDS011;45649;53.014;6.600;2023-02-15T14:35:13;38.83;;;28.30;;
59770;SDS011;45649;53.014;6.600;2023-02-15T14:37:57;38.70;;;28.37;;
59770;SDS011;45649;53.014;6.600;2023-02-15T14:46:07;35.40;;;27.17;;
59770;SDS011;45649;53.014;6.600;2023-02-15T14:51:02;40.43;;;28.33;;
59770;SDS011;45649;53.014;6.600;2023-02-15T14:58:36;40.00;;;29.50;;
59770;SDS011;45649;53.014;6.600;2023-02-15T15:01:06;39.40;;;30.07;;
59770;SDS011;45649;53.014;6.600;2023-02-15T15:03:33;37.93;;;28.67;;
59770;SDS011;45649;53.014;6.600;2023-02-15T15:06:03;37.67;;;27.93;;
59770;SDS011;45649;53.014;6.600;2023-02-15T15:08:33;39.13;;;28.10;;
59770;SDS011;45649;53.014;6.600;2023-02-15T15:13:53;39.27;;;28.00;;
59770;SDS011;45649;53.014;6.600;2023-02-15T15:19:04;35.13;;;28.47;;
59770;SDS011;45649;53.014;6.600;2023-02-15T15:29:56;36.20;;;27.90;;
59770;SDS011;45649;53.014;6.600;2023-02-15T15:32:22;38.00;;;28.67;;
59770;SDS011;45649;53.014;6.600;2023-02-15T15:42:57;37.03;;;29.13;;
59770;SDS011;45649;53.014;6.600;2023-02-15T15:47:59;38.70;;;28.47;;
59770;SDS011;45649;53.014;6.600;2023-02-15T15:50:30;37.23;;;29.03;;
59770;SDS011;45649;53.014;6.600;2023-02-15T15:52:57;36.53;;;27.73;;
59770;SDS011;45649;53.014;6.600;2023-02-15T15:55:24;37.73;;;30.37;;
59770;SDS011;45649;53.014;6.600;2023-02-15T15:57:52;42.97;;;30.90;;
59770;SDS011;45649;53.014;6.600;2023-02-15T16:02:54;38.03;;;28.13;;
59770;SDS011;45649;53.014;6.600;2023-02-15T16:05:23;35.17;;;25.93;;
59770;SDS011;45649;53.014;6.600;2023-02-15T16:07:49;36.93;;;28.17;;
59770;SDS011;45649;53.014;6.600;2023-02-15T16:10:23;32.57;;;25.83;;
59770;SDS011;45649;53.014;6.600;2023-02-15T16:12:49;35.53;;;27.17;;
59770;SDS011;45649;53.014;6.600;2023-02-15T16:15:36;37.63;;;27.40;;
59770;SDS011;45649;53.014;6.600;2023-02-15T16:18:02;36.23;;;27.53;;
59770;SDS011;45649;53.014;6.600;2023-02-15T16:20:30;34.43;;;27.87;;
59770;SDS011;45649;53.014;6.600;2023-02-15T16:28:11;37.07;;;28.40;;
59770;SDS011;45649;53.014;6.600;2023-02-15T16:30:38;36.77;;;28.67;;
59770;SDS011;45649;53.014;6.600;2023-02-15T16:35:31;39.80;;;30.53;;
59770;SDS011;45649;53.014;6.600;2023-02-15T16:37:58;40.33;;;31.40;;
59770;SDS011;45649;53.014;6.600;2023-02-15T16:42:54;40.90;;;30.90;;
59770;SDS011;45649;53.014;6.600;2023-02-15T16:45:22;38.47;;;29.63;;
59770;SDS011;45649;53.014;6.600;2023-02-15T16:47:50;40.93;;;29.77;;
59770;SDS011;45649;53.014;6.600;2023-02-15T16:50:39;39.60;;;30.23;;
59770;SDS011;45649;53.014;6.600;2023-02-15T16:53:05;36.50;;;27.40;;
59770;SDS011;45649;53.014;6.600;2023-02-15T16:55:39;34.97;;;26.70;;
59770;SDS011;45649;53.014;6.600;2023-02-15T16:58:06;38.00;;;27.30;;
59770;SDS011;45649;53.014;6.600;2023-02-15T17:00:34;37.83;;;27.13;;
59770;SDS011;45649;53.014;6.600;2023-02-15T17:03:02;40.97;;;28.13;;
59770;SDS011;45649;53.014;6.600;2023-02-15T17:05:42;34.50;;;25.77;;
59770;SDS011;45649;53.014;6.600;2023-02-15T17:10:40;39.30;;;28.13;;
59770;SDS011;45649;53.014;6.600;2023-02-15T17:13:16;36.10;;;27.23;;
59770;SDS011;45649;53.014;6.600;2023-02-15T17:16:08;35.73;;;26.33;;
59770;SDS011;45649;53.014;6.600;2023-02-15T17:18:44;39.87;;;28.70;;
59770;SDS011;45649;53.014;6.600;2023-02-15T17:21:12;39.47;;;29.87;;
59770;SDS011;45649;53.014;6.600;2023-02-15T17:23:43;36.30;;;28.70;;
59770;SDS011;45649;53.014;6.600;2023-02-15T17:26:14;35.23;;;26.33;;
59770;SDS011;45649;53.014;6.600;2023-02-15T17:28:51;37.63;;;26.53;;
59770;SDS011;45649;53.014;6.600;2023-02-15T17:31:18;38.17;;;29.75;;
59770;SDS011;45649;53.014;6.600;2023-02-15T17:33:45;36.27;;;27.50;;
59770;SDS011;45649;53.014;6.600;2023-02-15T17:36:16;35.23;;;26.33;;
59770;SDS011;45649;53.014;6.600;2023-02-15T17:41:29;32.50;;;24.37;;
59770;SDS011;45649;53.014;6.600;2023-02-15T17:43:55;38.83;;;27.93;;
59770;SDS011;45649;53.014;6.600;2023-02-15T17:46:22;38.67;;;27.07;;
59770;SDS011;45649;53.014;6.600;2023-02-15T17:48:49;36.70;;;27.47;;
59770;SDS011;45649;53.014;6.600;2023-02-15T17:51:16;37.23;;;26.47;;
59770;SDS011;45649;53.014;6.600;2023-02-15T17:53:43;36.53;;;26.47;;
59770;SDS011;45649;53.014;6.600;2023-02-15T17:56:28;38.20;;;26.87;;
59770;SDS011;45649;53.014;6.600;2023-02-15T17:58:54;41.53;;;32.58;;
59770;SDS011;45649;53.014;6.600;2023-02-15T18:01:20;37.40;;;28.10;;
59770;SDS011;45649;53.014;6.600;2023-02-15T18:04:07;34.00;;;26.10;;